Time;durP1;ratioP1;P1;durP2;ratioP2;P2;SDS_P1;SDS_P2;PMS_P1;PMS_P2;Temp;Humidity;BMP_temperature;BMP_pressure;BME280_temperature;BME280_humidity;BME280_pressure;Samples;Min_cycle;Max_cycle;Signal;HPM_P1;HPM_P2
2021/06/22 00:00:04;;;;;;;4.17;3.77;;;;;;;;;;4982804;28;20597;-58
2021/06/22 00:02:29;;;;;;;4.13;3.60;;;;;;;;;;4980934;28;20690;-57
2021/06/22 00:04:54;;;;;;;4.82;3.92;;;;;;;;;;4980915;28;20252;-58
2021/06/22 00:07:20;;;;;;;3.95;3.53;;;;;;;;;;4980435;28;20643;-58
2021/06/22 00:09:45;;;;;;;3.97;3.37;;;;;;;;;;4981306;28;20187;-58
2021/06/22 00:12:10;;;;;;;3.87;3.57;;;;;;;;;;4984260;28;20328;-58
2021/06/22 00:14:36;;;;;;;5.10;3.37;;;;;;;;;;4986094;28;20658;-58
2021/06/22 00:17:01;;;;;;;4.33;3.93;;;;;;;;;;4986188;28;20188;-58
2021/06/22 00:19:26;;;;;;;5.23;3.40;;;;;;;;;;4979844;28;20185;-58
2021/06/22 00:21:51;;;;;;;3.40;3.20;;;;;;;;;;4980518;28;20227;-63
2021/06/22 00:24:16;;;;;;;5.53;3.70;;;;;;;;;;4982109;28;20221;-62
2021/06/22 00:26:42;;;;;;;6.50;3.60;;;;;;;;;;4985936;28;20202;-61
2021/06/22 00:29:07;;;;;;;3.60;3.40;;;;;;;;;;4984611;28;20275;-60
2021/06/22 00:31:32;;;;;;;4.40;3.77;;;;;;;;;;4981037;28;20759;-59
2021/06/22 00:33:57;;;;;;;5.90;4.45;;;;;;;;;;4979708;28;20185;-60
2021/06/22 00:36:22;;;;;;;4.73;4.43;;;;;;;;;;4986095;28;20189;-60
2021/06/22 00:38:47;;;;;;;4.70;4.30;;;;;;;;;;4983321;28;20683;-59
2021/06/22 00:41:12;;;;;;;6.20;5.00;;;;;;;;;;4980561;28;20387;-59
2021/06/22 00:43:38;;;;;;;6.45;5.85;;;;;;;;;;4980362;28;20272;-60
2021/06/22 00:46:03;;;;;;;6.53;6.03;;;;;;;;;;4982630;28;20656;-60
2021/06/22 00:48:28;;;;;;;10.67;6.70;;;;;;;;;;4979339;28;20690;-59
2021/06/22 00:50:53;;;;;;;6.07;5.67;;;;;;;;;;4985727;28;20188;-60
2021/06/22 00:53:19;;;;;;;7.30;6.65;;;;;;;;;;4983900;28;20276;-60
2021/06/22 00:55:44;;;;;;;6.90;6.40;;;;;;;;;;4997897;28;20174;-60
2021/06/22 00:58:09;;;;;;;7.60;6.87;;;;;;;;;;4996271;28;20177;-60
2021/06/22 01:00:36;;;;;;;8.48;7.60;;;;;;;;;;4980454;28;20177;-60
2021/06/22 01:03:02;;;;;;;10.07;8.07;;;;;;;;;;4983439;28;20212;-60
2021/06/22 01:05:27;;;;;;;7.70;7.10;;;;;;;;;;4983572;28;21127;-62
2021/06/22 01:07:54;;;;;;;7.70;7.10;;;;;;;;;;4981752;28;20272;-61
2021/06/22 01:10:19;;;;;;;7.80;7.30;;;;;;;;;;4979564;28;20205;-60
2021/06/22 01:12:44;;;;;;;7.20;6.53;;;;;;;;;;4980101;28;20650;-60
2021/06/22 01:15:20;;;;;;;6.20;5.70;;;;;;;;;;4979119;28;20548;-60
2021/06/22 01:17:45;;;;;;;6.90;6.40;;;;;;;;;;4981342;28;20274;-61
2021/06/22 01:20:11;;;;;;;7.37;6.87;;;;;;;;;;4981047;28;20695;-61
2021/06/22 01:22:37;;;;;;;9.70;7.07;;;;;;;;;;4985392;28;20307;-60
2021/06/22 01:25:02;;;;;;;8.20;7.50;;;;;;;;;;4983081;28;20185;-61
2021/06/22 01:27:27;;;;;;;7.40;6.80;;;;;;;;;;4979613;28;20581;-61
2021/06/22 01:29:53;;;;;;;8.50;7.90;;;;;;;;;;4980539;28;20174;-60
2021/06/22 01:32:18;;;;;;;10.00;9.10;;;;;;;;;;4983039;28;20266;-61
2021/06/22 01:34:43;;;;;;;9.83;8.93;;;;;;;;;;4980138;28;20202;-60
2021/06/22 01:37:09;;;;;;;9.97;9.17;;;;;;;;;;4981392;28;20666;-61
2021/06/22 01:39:34;;;;;;;8.97;8.30;;;;;;;;;;4980898;28;20205;-61
2021/06/22 01:41:59;;;;;;;10.03;9.23;;;;;;;;;;4984759;28;20212;-61
2021/06/22 01:44:25;;;;;;;10.10;9.30;;;;;;;;;;4980708;28;20532;-61
2021/06/22 01:46:51;;;;;;;11.40;10.40;;;;;;;;;;4979496;28;20691;-61
2021/06/22 01:49:16;;;;;;;11.52;10.52;;;;;;;;;;4980098;28;20872;-61
2021/06/22 01:51:41;;;;;;;12.15;10.90;;;;;;;;;;4981302;28;20236;-60
2021/06/22 01:54:06;;;;;;;10.70;9.80;;;;;;;;;;4984648;28;20178;-61
2021/06/22 01:56:32;;;;;;;11.43;10.52;;;;;;;;;;4982898;28;20179;-60
2021/06/22 01:59:01;;;;;;;11.30;10.40;;;;;;;;;;4982212;28;20191;-61
2021/06/22 02:01:27;;;;;;;11.73;10.70;;;;;;;;;;4960784;28;20652;-60
2021/06/22 02:03:52;;;;;;;10.90;9.90;;;;;;;;;;4979126;28;20608;-60
2021/06/22 02:06:17;;;;;;;9.57;8.77;;;;;;;;;;4984291;28;20170;-60
2021/06/22 02:08:42;;;;;;;8.80;8.00;;;;;;;;;;4984067;28;20185;-61
2021/06/22 02:11:07;;;;;;;9.63;8.77;;;;;;;;;;4984683;28;20243;-60
2021/06/22 02:13:33;;;;;;;9.10;8.20;;;;;;;;;;4980133;28;20648;-61
2021/06/22 02:15:58;;;;;;;8.70;7.90;;;;;;;;;;4980126;28;20217;-61
2021/06/22 02:18:25;;;;;;;8.87;8.17;;;;;;;;;;4979008;28;20186;-61
2021/06/22 02:20:51;;;;;;;8.27;7.60;;;;;;;;;;4978865;28;20182;-61
2021/06/22 02:23:16;;;;;;;8.67;7.87;;;;;;;;;;4981699;28;20616;-61
2021/06/22 02:25:41;;;;;;;9.00;8.23;;;;;;;;;;4984690;28;20163;-62
2021/06/22 02:28:11;;;;;;;7.60;7.00;;;;;;;;;;4984706;28;20644;-61
2021/06/22 02:30:37;;;;;;;8.47;7.67;;;;;;;;;;4980242;28;20618;-61
2021/06/22 02:33:02;;;;;;;9.20;7.83;;;;;;;;;;4979840;28;20588;-62
2021/06/22 02:35:28;;;;;;;8.30;7.60;;;;;;;;;;4980273;28;20267;-61
2021/06/22 02:37:53;;;;;;;8.93;7.90;;;;;;;;;;4984114;28;20261;-61
2021/06/22 02:40:19;;;;;;;7.17;6.57;;;;;;;;;;4981503;28;20197;-61
2021/06/22 02:42:45;;;;;;;7.03;6.33;;;;;;;;;;4980124;28;20570;-61
2021/06/22 02:45:11;;;;;;;7.30;6.67;;;;;;;;;;4980666;28;20684;-62
2021/06/22 02:47:36;;;;;;;7.17;6.57;;;;;;;;;;4988086;28;20173;-60
2021/06/22 02:50:03;;;;;;;8.37;7.60;;;;;;;;;;4987684;28;20539;-60
2021/06/22 02:52:28;;;;;;;8.83;7.93;;;;;;;;;;4989707;28;20192;-60
2021/06/22 02:54:53;;;;;;;7.13;6.47;;;;;;;;;;4987964;28;20597;-60
2021/06/22 02:57:18;;;;;;;7.72;7.03;;;;;;;;;;4981823;28;20823;-59
2021/06/22 02:59:43;;;;;;;7.03;6.43;;;;;;;;;;4983831;28;20232;-60
2021/06/22 03:02:09;;;;;;;6.72;6.22;;;;;;;;;;4983392;28;20202;-64
2021/06/22 03:04:34;;;;;;;5.60;5.20;;;;;;;;;;4986973;28;20707;-64
2021/06/22 03:06:59;;;;;;;5.70;5.30;;;;;;;;;;4986020;28;20178;-63
2021/06/22 03:09:25;;;;;;;5.55;4.78;;;;;;;;;;4981508;28;20202;-63
2021/06/22 03:11:50;;;;;;;5.43;5.03;;;;;;;;;;4983303;28;20256;-63
2021/06/22 03:14:17;;;;;;;4.67;4.20;;;;;;;;;;4985183;28;20578;-63
2021/06/22 03:16:42;;;;;;;6.10;5.60;;;;;;;;;;4987219;28;20618;-62
2021/06/22 03:19:07;;;;;;;6.57;6.00;;;;;;;;;;4987415;28;20660;-63
2021/06/22 03:21:32;;;;;;;6.32;5.70;;;;;;;;;;4982771;28;20210;-62
2021/06/22 03:23:57;;;;;;;7.50;6.50;;;;;;;;;;4981843;28;20170;-61
2021/06/22 03:26:23;;;;;;;8.33;7.53;;;;;;;;;;4981686;28;20540;-61
2021/06/22 03:28:48;;;;;;;6.80;6.28;;;;;;;;;;4985568;28;20224;-62
2021/06/22 03:31:13;;;;;;;6.40;5.80;;;;;;;;;;4982386;28;20182;-62
2021/06/22 03:33:38;;;;;;;7.20;6.70;;;;;;;;;;4983879;28;20185;-62
2021/06/22 03:36:04;;;;;;;5.97;5.50;;;;;;;;;;4979125;28;20266;-62
2021/06/22 03:38:29;;;;;;;6.63;6.10;;;;;;;;;;4977926;28;20186;-62
2021/06/22 03:40:54;;;;;;;7.37;6.70;;;;;;;;;;4981405;28;20184;-62
2021/06/22 03:43:21;;;;;;;5.53;5.13;;;;;;;;;;4980937;28;20189;-62
2021/06/22 03:45:46;;;;;;;5.90;5.50;;;;;;;;;;4983660;28;20184;-61
2021/06/22 03:48:11;;;;;;;6.20;5.63;;;;;;;;;;4978660;28;20992;-61
2021/06/22 03:50:36;;;;;;;11.40;7.47;;;;;;;;;;4986993;28;20175;-61
2021/06/22 03:53:02;;;;;;;15.07;8.70;;;;;;;;;;4981571;28;20182;-58
2021/06/22 03:55:27;;;;;;;17.23;10.37;;;;;;;;;;4981547;28;20690;-55
2021/06/22 03:57:54;;;;;;;14.30;10.67;;;;;;;;;;4984615;28;20548;-55
2021/06/22 04:00:19;;;;;;;11.90;9.10;;;;;;;;;;4986541;28;20189;-55
2021/06/22 04:02:44;;;;;;;11.00;9.90;;;;;;;;;;4986403;28;20659;-55
2021/06/22 04:05:10;;;;;;;10.60;9.07;;;;;;;;;;4984903;28;20178;-54
2021/06/22 04:07:35;;;;;;;12.60;11.30;;;;;;;;;;4982105;28;20200;-54
2021/06/22 04:10:00;;;;;;;12.50;11.33;;;;;;;;;;4980505;28;20648;-56
2021/06/22 04:12:25;;;;;;;14.63;11.68;;;;;;;;;;4984388;28;20231;-56
2021/06/22 04:14:51;;;;;;;18.58;12.30;;;;;;;;;;4984521;28;20192;-56
2021/06/22 04:17:16;;;;;;;11.73;10.60;;;;;;;;;;4983699;28;20667;-56
2021/06/22 04:19:41;;;;;;;12.55;11.35;;;;;;;;;;4981092;28;20173;-56
2021/06/22 04:22:06;;;;;;;14.27;12.77;;;;;;;;;;4980535;28;20206;-56
2021/06/22 04:24:31;;;;;;;14.63;13.13;;;;;;;;;;4987591;28;20890;-56
2021/06/22 04:26:57;;;;;;;12.75;11.63;;;;;;;;;;4982987;28;20681;-56
2021/06/22 04:29:22;;;;;;;15.52;13.93;;;;;;;;;;4985071;28;20186;-56
2021/06/22 04:31:47;;;;;;;15.60;14.00;;;;;;;;;;4984295;28;20180;-55
2021/06/22 04:34:12;;;;;;;16.70;15.00;;;;;;;;;;4987851;28;20187;-56
2021/06/22 04:36:39;;;;;;;14.73;13.30;;;;;;;;;;4983415;28;20505;-55
2021/06/22 04:39:06;;;;;;;16.00;14.00;;;;;;;;;;4981749;28;20175;-55
2021/06/22 04:41:32;;;;;;;19.50;15.97;;;;;;;;;;4971289;28;20640;-55
2021/06/22 04:43:57;;;;;;;16.50;14.90;;;;;;;;;;4980677;28;21194;-55
2021/06/22 04:46:22;;;;;;;17.90;16.10;;;;;;;;;;4979625;28;20627;-55
2021/06/22 04:48:47;;;;;;;19.85;16.00;;;;;;;;;;4974789;28;20626;-54
2021/06/22 04:51:12;;;;;;;16.27;14.57;;;;;;;;;;4977345;28;20198;-55
2021/06/22 04:53:37;;;;;;;18.63;16.57;;;;;;;;;;4980419;28;20192;-55
2021/06/22 04:56:03;;;;;;;14.10;12.80;;;;;;;;;;4967107;28;20185;-56
2021/06/22 04:58:29;;;;;;;16.23;14.20;;;;;;;;;;4972980;28;20192;-55
2021/06/22 05:00:54;;;;;;;16.10;14.37;;;;;;;;;;4982947;28;20308;-56
2021/06/22 05:03:19;;;;;;;16.07;14.33;;;;;;;;;;4978116;28;20218;-56
2021/06/22 05:05:44;;;;;;;17.70;15.80;;;;;;;;;;4978599;28;20179;-55
2021/06/22 05:08:09;;;;;;;16.38;14.45;;;;;;;;;;4980863;28;20251;-57
2021/06/22 05:10:34;;;;;;;17.03;15.23;;;;;;;;;;4981070;28;20200;-56
2021/06/22 05:13:00;;;;;;;16.40;14.70;;;;;;;;;;4958990;28;20232;-53
2021/06/22 05:15:25;;;;;;;15.90;14.20;;;;;;;;;;4975189;28;20192;-54
2021/06/22 05:17:50;;;;;;;16.23;14.10;;;;;;;;;;4979451;28;20642;-54
2021/06/22 05:20:15;;;;;;;14.20;12.77;;;;;;;;;;4968657;28;20186;-54
2021/06/22 05:22:40;;;;;;;13.53;12.43;;;;;;;;;;4986613;28;20625;-54
2021/06/22 05:25:06;;;;;;;12.95;11.65;;;;;;;;;;4983537;28;20346;-53
2021/06/22 05:27:31;;;;;;;12.90;11.60;;;;;;;;;;4979550;28;20183;-54
2021/06/22 05:29:56;;;;;;;13.47;12.17;;;;;;;;;;4979478;28;20175;-54
2021/06/22 05:32:21;;;;;;;15.03;13.63;;;;;;;;;;4982927;28;20264;-55
2021/06/22 05:34:47;;;;;;;12.18;11.00;;;;;;;;;;4984399;28;20185;-55
2021/06/22 05:37:12;;;;;;;12.85;11.65;;;;;;;;;;4981275;28;20199;-55
2021/06/22 05:39:37;;;;;;;10.77;9.77;;;;;;;;;;4979407;28;20187;-57
2021/06/22 05:42:03;;;;;;;11.17;10.17;;;;;;;;;;4979746;28;20720;-55
2021/06/22 05:44:28;;;;;;;10.60;9.60;;;;;;;;;;4980860;28;20248;-55
2021/06/22 05:46:53;;;;;;;11.48;10.32;;;;;;;;;;4986142;28;20173;-55
2021/06/22 05:49:18;;;;;;;12.77;10.43;;;;;;;;;;4987293;28;20228;-54
2021/06/22 05:51:43;;;;;;;10.23;9.27;;;;;;;;;;4979231;28;20181;-54
2021/06/22 05:54:09;;;;;;;10.90;9.87;;;;;;;;;;4978294;28;20643;-53
2021/06/22 05:56:34;;;;;;;9.33;8.63;;;;;;;;;;4974308;28;20182;-54
2021/06/22 05:58:59;;;;;;;8.50;7.80;;;;;;;;;;4977395;28;20190;-53
2021/06/22 06:01:24;;;;;;;11.00;10.00;;;;;;;;;;4981955;28;20722;-53
2021/06/22 06:03:49;;;;;;;12.10;11.10;;;;;;;;;;4984787;28;20198;-53
2021/06/22 06:06:15;;;;;;;11.23;10.13;;;;;;;;;;4984174;28;20181;-54
2021/06/22 06:08:40;;;;;;;10.40;9.60;;;;;;;;;;4983909;28;20250;-53
2021/06/22 06:11:05;;;;;;;10.73;9.73;;;;;;;;;;4984643;28;20712;-52
2021/06/22 06:13:34;;;;;;;11.47;10.47;;;;;;;;;;4984011;28;20279;-52
2021/06/22 06:16:02;;;;;;;11.17;10.17;;;;;;;;;;4984794;28;20184;-52
2021/06/22 06:18:28;;;;;;;10.60;9.70;;;;;;;;;;4984385;28;21209;-53
2021/06/22 06:20:53;;;;;;;12.60;11.40;;;;;;;;;;4987394;28;20642;-54
2021/06/22 06:23:19;;;;;;;11.47;10.47;;;;;;;;;;4988960;28;20548;-54
2021/06/22 06:25:45;;;;;;;12.33;11.43;;;;;;;;;;4974440;28;20671;-54
2021/06/22 06:28:18;;;;;;;12.07;11.07;;;;;;;;;;4987428;28;20181;-54
2021/06/22 06:30:43;;;;;;;11.20;10.30;;;;;;;;;;4989233;28;20595;-54
2021/06/22 06:33:09;;;;;;;12.13;11.13;;;;;;;;;;4988056;28;21220;-53
2021/06/22 06:35:34;;;;;;;13.13;12.07;;;;;;;;;;4988889;28;20552;-54
2021/06/22 06:37:59;;;;;;;11.80;10.80;;;;;;;;;;4984672;28;20228;-53
2021/06/22 06:40:25;;;;;;;12.02;10.98;;;;;;;;;;4985304;28;20186;-53
2021/06/22 06:42:50;;;;;;;11.73;10.80;;;;;;;;;;4984250;28;20223;-54
2021/06/22 06:45:16;;;;;;;11.52;10.63;;;;;;;;;;4982491;28;20186;-54
2021/06/22 06:47:42;;;;;;;12.13;11.13;;;;;;;;;;5007077;28;20561;-53
2021/06/22 06:50:08;;;;;;;12.60;11.40;;;;;;;;;;5006759;28;20590;-53
2021/06/22 06:52:33;;;;;;;11.80;10.80;;;;;;;;;;5001811;28;20178;-53
2021/06/22 06:54:58;;;;;;;11.30;10.40;;;;;;;;;;4987305;28;20753;-53
2021/06/22 06:57:23;;;;;;;11.23;10.33;;;;;;;;;;4982119;28;20190;-53
2021/06/22 06:59:48;;;;;;;10.80;10.00;;;;;;;;;;4985851;28;20171;-54
2021/06/22 07:02:13;;;;;;;10.83;10.03;;;;;;;;;;4985397;28;20199;-54
2021/06/22 07:04:38;;;;;;;12.87;11.77;;;;;;;;;;4983464;28;20188;-54
2021/06/22 07:07:04;;;;;;;11.80;10.57;;;;;;;;;;4984581;28;20179;-54
2021/06/22 07:09:29;;;;;;;11.57;10.53;;;;;;;;;;4983511;28;20633;-54
2021/06/22 07:11:56;;;;;;;10.88;9.95;;;;;;;;;;4987412;28;20233;-54
2021/06/22 07:14:21;;;;;;;9.57;8.87;;;;;;;;;;4984334;28;20668;-54
2021/06/22 07:16:48;;;;;;;10.10;9.30;;;;;;;;;;4982635;28;20587;-54
2021/06/22 07:19:13;;;;;;;9.90;9.00;;;;;;;;;;4982379;28;20186;-53
2021/06/22 07:21:38;;;;;;;11.37;10.40;;;;;;;;;;4982652;28;20757;-54
2021/06/22 07:24:04;;;;;;;8.52;7.82;;;;;;;;;;4985429;28;20210;-54
2021/06/22 07:26:29;;;;;;;9.00;8.27;;;;;;;;;;4985529;28;20246;-53
2021/06/22 07:28:54;;;;;;;8.50;7.90;;;;;;;;;;4983436;28;20642;-54
2021/06/22 07:31:19;;;;;;;8.55;7.85;;;;;;;;;;4980460;28;20176;-54
2021/06/22 07:33:45;;;;;;;8.63;8.02;;;;;;;;;;4981231;28;20182;-54
2021/06/22 07:36:10;;;;;;;8.87;8.17;;;;;;;;;;4983595;28;20806;-54
2021/06/22 07:38:35;;;;;;;8.50;7.85;;;;;;;;;;4987312;28;20560;-54
2021/06/22 07:41:01;;;;;;;9.10;8.30;;;;;;;;;;4987022;28;20537;-53
2021/06/22 07:43:26;;;;;;;9.40;8.60;;;;;;;;;;4980960;28;20171;-54
2021/06/22 07:45:51;;;;;;;8.40;7.70;;;;;;;;;;4996358;28;20253;-54
2021/06/22 07:48:16;;;;;;;10.27;9.40;;;;;;;;;;5000585;28;20246;-53
2021/06/22 07:50:42;;;;;;;8.87;8.17;;;;;;;;;;5004729;28;20749;-53
2021/06/22 07:53:07;;;;;;;9.10;8.40;;;;;;;;;;4997857;28;20241;-54
2021/06/22 07:55:32;;;;;;;8.60;7.90;;;;;;;;;;4983713;28;20270;-54
2021/06/22 07:57:57;;;;;;;8.33;7.80;;;;;;;;;;4983262;28;20635;-54
2021/06/22 08:02:57;;;;;;;9.37;8.57;;;;;;;;;;4985014;28;20218;-54
2021/06/22 08:05:22;;;;;;;9.33;8.53;;;;;;;;;;4984805;28;20580;-54
2021/06/22 08:07:47;;;;;;;10.67;9.43;;;;;;;;;;4985048;28;20203;-54
2021/06/22 08:10:13;;;;;;;12.65;8.65;;;;;;;;;;4981708;28;20497;-54
2021/06/22 08:12:38;;;;;;;14.93;11.07;;;;;;;;;;4982327;28;20541;-54
2021/06/22 08:15:04;;;;;;;10.23;9.25;;;;;;;;;;4984671;28;20650;-54
2021/06/22 08:17:29;;;;;;;10.07;9.37;;;;;;;;;;4984509;28;20181;-54
2021/06/22 08:19:54;;;;;;;10.52;9.60;;;;;;;;;;4984169;28;20591;-54
2021/06/22 08:22:19;;;;;;;11.40;10.30;;;;;;;;;;4980583;28;20204;-54
2021/06/22 08:24:44;;;;;;;10.57;9.47;;;;;;;;;;4980517;28;20200;-54
2021/06/22 08:27:09;;;;;;;10.23;9.43;;;;;;;;;;4985827;28;20179;-55
2021/06/22 08:29:35;;;;;;;9.90;9.10;;;;;;;;;;4984794;28;20194;-54
2021/06/22 08:32:00;;;;;;;10.15;9.35;;;;;;;;;;4982416;28;20183;-55
2021/06/22 08:34:25;;;;;;;11.70;10.57;;;;;;;;;;4980376;28;20253;-54
2021/06/22 08:36:50;;;;;;;9.88;9.07;;;;;;;;;;4983702;28;20192;-53
2021/06/22 08:39:15;;;;;;;9.40;8.60;;;;;;;;;;4983184;28;20176;-54
2021/06/22 08:41:41;;;;;;;9.73;9.03;;;;;;;;;;4982212;28;20289;-55
2021/06/22 08:44:09;;;;;;;11.20;10.30;;;;;;;;;;4993695;28;20194;-55
2021/06/22 08:46:34;;;;;;;11.10;10.20;;;;;;;;;;5003421;28;20259;-55
2021/06/22 08:48:59;;;;;;;10.60;9.70;;;;;;;;;;5005528;28;21035;-55
2021/06/22 08:51:24;;;;;;;10.57;9.67;;;;;;;;;;4987680;28;20687;-55
2021/06/22 08:53:51;;;;;;;13.20;11.90;;;;;;;;;;4980141;28;20176;-55
2021/06/22 08:56:16;;;;;;;11.60;10.50;;;;;;;;;;4981281;28;20587;-55
2021/06/22 08:58:41;;;;;;;12.43;11.32;;;;;;;;;;4985937;28;20563;-55
2021/06/22 09:01:07;;;;;;;13.50;12.40;;;;;;;;;;4983769;28;20180;-56
2021/06/22 09:03:33;;;;;;;13.60;12.50;;;;;;;;;;4980079;28;20185;-55
2021/06/22 09:05:59;;;;;;;13.83;12.73;;;;;;;;;;4979955;28;21185;-55
2021/06/22 09:08:29;;;;;;;16.40;15.03;;;;;;;;;;4983499;28;20184;-55
2021/06/22 09:11:02;;;;;;;13.50;12.30;;;;;;;;;;4984617;28;21066;-55
2021/06/22 09:13:27;;;;;;;13.33;12.00;;;;;;;;;;4980265;28;20598;-55
2021/06/22 09:15:53;;;;;;;14.60;13.32;;;;;;;;;;4979960;28;20590;-55
2021/06/22 09:18:23;;;;;;;14.40;13.20;;;;;;;;;;4979230;28;20658;-55
2021/06/22 09:20:48;;;;;;;15.07;13.77;;;;;;;;;;4984940;28;20957;-55
2021/06/22 09:23:21;;;;;;;14.40;13.10;;;;;;;;;;4983476;28;20627;-56
2021/06/22 09:25:47;;;;;;;13.37;12.27;;;;;;;;;;4979839;28;20180;-56
2021/06/22 09:28:13;;;;;;;14.80;13.60;;;;;;;;;;4980091;28;20595;-55
2021/06/22 09:30:52;;;;;;;13.93;12.70;;;;;;;;;;4980711;28;20763;-56
2021/06/22 09:33:21;;;;;;;14.20;13.00;;;;;;;;;;4983025;28;20586;-56
2021/06/22 09:35:48;;;;;;;16.83;14.93;;;;;;;;;;4984602;28;20606;-56
2021/06/22 09:38:14;;;;;;;15.20;13.70;;;;;;;;;;4980367;28;21163;-56
2021/06/22 09:40:39;;;;;;;14.63;13.33;;;;;;;;;;4980373;28;20585;-54
2021/06/22 09:43:04;;;;;;;16.43;15.00;;;;;;;;;;4994986;28;21076;-56
2021/06/22 09:45:30;;;;;;;19.20;16.73;;;;;;;;;;5000348;28;20513;-56
2021/06/22 09:47:59;;;;;;;15.33;14.03;;;;;;;;;;4981549;28;20264;-56
2021/06/22 09:50:38;;;;;;;14.13;12.83;;;;;;;;;;4974760;28;20271;-56
2021/06/22 09:53:22;;;;;;;17.87;16.10;;;;;;;;;;4976500;28;20611;-56
2021/06/22 09:55:47;;;;;;;14.90;13.50;;;;;;;;;;4979543;28;20604;-56
2021/06/22 09:58:13;;;;;;;14.73;13.43;;;;;;;;;;4982503;28;20590;-55
2021/06/22 10:00:39;;;;;;;17.07;15.40;;;;;;;;;;4982764;28;20181;-55
2021/06/22 10:03:04;;;;;;;17.53;15.93;;;;;;;;;;4984216;28;20885;-56
2021/06/22 10:05:29;;;;;;;17.23;15.63;;;;;;;;;;4977895;28;20556;-57
2021/06/22 10:08:01;;;;;;;17.40;15.70;;;;;;;;;;4982179;28;20174;-56
2021/06/22 10:10:36;;;;;;;16.10;14.70;;;;;;;;;;4982981;28;20614;-56
2021/06/22 10:13:01;;;;;;;17.07;15.30;;;;;;;;;;4984201;28;20690;-56
2021/06/22 10:15:26;;;;;;;17.73;16.13;;;;;;;;;;4979738;28;21149;-56
2021/06/22 10:17:51;;;;;;;17.23;15.73;;;;;;;;;;4979130;28;20176;-56
2021/06/22 10:20:17;;;;;;;16.60;15.10;;;;;;;;;;4981614;28;20546;-56
2021/06/22 10:22:45;;;;;;;17.00;15.50;;;;;;;;;;4982773;28;20208;-56
2021/06/22 10:25:10;;;;;;;17.60;15.90;;;;;;;;;;4979554;28;20191;-56
2021/06/22 10:27:36;;;;;;;16.70;15.17;;;;;;;;;;4976445;28;20625;-56
2021/06/22 10:30:03;;;;;;;17.63;15.83;;;;;;;;;;4975812;28;20196;-55
2021/06/22 10:32:29;;;;;;;18.60;16.80;;;;;;;;;;4982361;28;20540;-56
2021/06/22 10:34:55;;;;;;;16.90;15.40;;;;;;;;;;4979835;28;20596;-56
2021/06/22 10:37:30;;;;;;;18.80;17.00;;;;;;;;;;4980436;28;21227;-55
2021/06/22 10:40:02;;;;;;;19.30;17.50;;;;;;;;;;4981580;28;21417;-56
2021/06/22 10:42:38;;;;;;;19.70;17.70;;;;;;;;;;4982889;28;22167;-57
2021/06/22 10:45:04;;;;;;;20.50;18.40;;;;;;;;;;4982479;28;20602;-55
2021/06/22 10:47:42;;;;;;;20.20;18.20;;;;;;;;;;4977878;28;20604;-58
2021/06/22 10:50:22;;;;;;;20.90;18.60;;;;;;;;;;4979669;28;20875;-57
2021/06/22 10:52:50;;;;;;;22.47;20.23;;;;;;;;;;4984168;28;20690;-58
2021/06/22 10:55:22;;;;;;;23.80;21.40;;;;;;;;;;4981704;28;20617;-57
2021/06/22 10:57:53;;;;;;;27.53;23.00;;;;;;;;;;4980189;28;20620;-59
2021/06/22 11:00:18;;;;;;;24.67;22.10;;;;;;;;;;4979797;28;21136;-58
2021/06/22 11:03:02;;;;;;;21.93;19.63;;;;;;;;;;4977048;28;20683;-58
2021/06/22 11:05:28;;;;;;;28.70;24.20;;;;;;;;;;4979983;28;20795;-57
2021/06/22 11:08:11;;;;;;;24.50;21.90;;;;;;;;;;4984741;28;20611;-57
2021/06/22 11:10:37;;;;;;;23.93;21.33;;;;;;;;;;4965047;28;20214;-55
2021/06/22 11:13:03;;;;;;;24.13;21.63;;;;;;;;;;4981147;28;20620;-57
2021/06/22 11:15:45;;;;;;;26.07;22.40;;;;;;;;;;4984876;28;20589;-57
2021/06/22 11:18:10;;;;;;;20.63;18.43;;;;;;;;;;4986771;28;20703;-58
2021/06/22 11:20:36;;;;;;;18.07;16.33;;;;;;;;;;4985118;28;20668;-57
2021/06/22 11:23:02;;;;;;;17.93;16.23;;;;;;;;;;4985953;28;20291;-60
2021/06/22 11:25:46;;;;;;;17.90;16.30;;;;;;;;;;4979361;28;20189;-60
2021/06/22 11:28:11;;;;;;;16.80;15.20;;;;;;;;;;4979780;28;21163;-60
2021/06/22 11:30:55;;;;;;;15.20;13.87;;;;;;;;;;4977988;28;20611;-59
2021/06/22 11:33:46;;;;;;;15.40;14.10;;;;;;;;;;4983993;28;20168;-60
2021/06/22 11:36:20;;;;;;;16.80;15.10;;;;;;;;;;4983909;28;21050;-60
2021/06/22 11:39:06;;;;;;;19.33;17.60;;;;;;;;;;4979060;28;20607;-60
2021/06/22 11:41:32;;;;;;;18.07;16.37;;;;;;;;;;4958836;28;20638;-60
2021/06/22 11:44:06;;;;;;;18.10;16.27;;;;;;;;;;4963789;28;21226;-60
2021/06/22 11:46:32;;;;;;;19.80;17.80;;;;;;;;;;4983861;28;20184;-60
2021/06/22 11:48:57;;;;;;;17.27;15.47;;;;;;;;;;4983206;28;20608;-60
2021/06/22 11:51:41;;;;;;;15.23;13.63;;;;;;;;;;4979139;28;20264;-61
2021/06/22 11:54:06;;;;;;;15.43;14.00;;;;;;;;;;4961040;28;20170;-61
2021/06/22 11:56:33;;;;;;;16.80;15.30;;;;;;;;;;4967217;28;20599;-60
2021/06/22 11:59:00;;;;;;;16.00;14.60;;;;;;;;;;4982744;28;20182;-60
2021/06/22 12:01:25;;;;;;;15.13;13.73;;;;;;;;;;4974968;28;20660;-57
2021/06/22 12:03:53;;;;;;;15.32;14.05;;;;;;;;;;4980796;28;20597;-55
2021/06/22 12:06:21;;;;;;;15.60;14.23;;;;;;;;;;4980083;28;20190;-55
2021/06/22 12:08:46;;;;;;;15.57;14.27;;;;;;;;;;4982815;28;20688;-55
2021/06/22 12:11:13;;;;;;;14.03;12.87;;;;;;;;;;4980981;28;20656;-57
2021/06/22 12:13:41;;;;;;;15.93;14.20;;;;;;;;;;4980845;28;20182;-55
2021/06/22 12:16:19;;;;;;;17.00;15.60;;;;;;;;;;4980751;28;20951;-54
2021/06/22 12:18:44;;;;;;;17.30;15.70;;;;;;;;;;4979240;28;20605;-56
2021/06/22 12:21:10;;;;;;;14.17;13.03;;;;;;;;;;4980797;28;20994;-56
2021/06/22 12:23:35;;;;;;;15.77;14.47;;;;;;;;;;4980785;28;20178;-56
2021/06/22 12:26:00;;;;;;;16.07;14.67;;;;;;;;;;4982610;28;20177;-55
2021/06/22 12:28:30;;;;;;;15.13;13.83;;;;;;;;;;4977739;28;20182;-55
2021/06/22 12:30:56;;;;;;;17.90;16.40;;;;;;;;;;4972749;28;20671;-55
2021/06/22 12:33:25;;;;;;;16.13;14.63;;;;;;;;;;4978709;28;20613;-55
2021/06/22 12:35:52;;;;;;;15.13;13.93;;;;;;;;;;4982302;28;20970;-56
2021/06/22 12:38:18;;;;;;;16.07;14.70;;;;;;;;;;4989292;28;20607;-56
2021/06/22 12:40:47;;;;;;;15.00;13.70;;;;;;;;;;4986176;28;20651;-56
2021/06/22 12:43:13;;;;;;;17.93;16.33;;;;;;;;;;4981942;28;20648;-56
2021/06/22 12:45:39;;;;;;;16.23;14.80;;;;;;;;;;4975615;28;20603;-56
2021/06/22 12:48:04;;;;;;;14.97;13.57;;;;;;;;;;4977138;28;21161;-56
2021/06/22 12:50:34;;;;;;;13.13;12.13;;;;;;;;;;4980725;28;20188;-56
2021/06/22 12:53:00;;;;;;;13.27;12.10;;;;;;;;;;4982232;28;20216;-55
2021/06/22 12:55:35;;;;;;;13.97;12.87;;;;;;;;;;4982106;28;20607;-56
2021/06/22 12:58:01;;;;;;;12.30;11.20;;;;;;;;;;4980526;28;20612;-56
2021/06/22 13:00:35;;;;;;;15.17;13.70;;;;;;;;;;4979241;28;20614;-56
2021/06/22 13:03:08;;;;;;;15.43;13.90;;;;;;;;;;4979493;28;20211;-56
2021/06/22 13:05:35;;;;;;;15.77;14.17;;;;;;;;;;4983027;28;20579;-55
2021/06/22 13:08:01;;;;;;;14.23;13.13;;;;;;;;;;4984800;28;20579;-55
2021/06/22 13:10:26;;;;;;;15.33;13.93;;;;;;;;;;4982716;28;20762;-56
2021/06/22 13:12:51;;;;;;;19.07;17.27;;;;;;;;;;4981209;28;20307;-56
2021/06/22 13:15:16;;;;;;;14.70;13.50;;;;;;;;;;4983088;28;20173;-57
2021/06/22 13:17:42;;;;;;;15.60;14.30;;;;;;;;;;4984684;28;20997;-57
2021/06/22 13:20:08;;;;;;;16.00;14.43;;;;;;;;;;4984633;28;20181;-57
2021/06/22 13:22:35;;;;;;;13.63;12.43;;;;;;;;;;4982694;28;20534;-57
2021/06/22 13:25:00;;;;;;;16.97;15.57;;;;;;;;;;4984361;28;20601;-56
2021/06/22 13:27:29;;;;;;;13.77;12.47;;;;;;;;;;4980500;28;20974;-57
2021/06/22 13:30:13;;;;;;;13.07;11.97;;;;;;;;;;4977514;28;20176;-57
2021/06/22 13:32:40;;;;;;;13.50;12.37;;;;;;;;;;4985157;28;20633;-57
2021/06/22 13:35:07;;;;;;;13.70;12.50;;;;;;;;;;4984902;28;21071;-56
2021/06/22 13:37:32;;;;;;;14.07;12.87;;;;;;;;;;4986955;28;20620;-57
2021/06/22 13:39:59;;;;;;;13.37;12.27;;;;;;;;;;4983167;28;20581;-57
2021/06/22 13:42:26;;;;;;;13.20;12.10;;;;;;;;;;4978470;28;20209;-58
2021/06/22 13:44:53;;;;;;;14.37;13.20;;;;;;;;;;4979105;28;20581;-57
2021/06/22 13:47:50;;;;;;;12.60;11.50;;;;;;;;;;4982454;28;21307;-57
2021/06/22 13:50:17;;;;;;;15.40;14.10;;;;;;;;;;4930732;28;20700;-57
2021/06/22 13:52:45;;;;;;;15.30;14.07;;;;;;;;;;4982938;28;21073;-57
2021/06/22 13:55:11;;;;;;;15.47;14.17;;;;;;;;;;4984466;28;20581;-57
2021/06/22 13:57:39;;;;;;;13.60;12.60;;;;;;;;;;4977126;28;20616;-57
2021/06/22 14:00:05;;;;;;;14.50;13.30;;;;;;;;;;4982128;28;20609;-56
2021/06/22 14:02:31;;;;;;;13.97;12.77;;;;;;;;;;4979508;28;20655;-57
2021/06/22 14:04:56;;;;;;;14.10;13.00;;;;;;;;;;4983852;28;20601;-57
2021/06/22 14:07:22;;;;;;;14.30;13.20;;;;;;;;;;4981799;28;20209;-56
2021/06/22 14:09:47;;;;;;;14.18;12.98;;;;;;;;;;4981691;28;20189;-57
2021/06/22 14:12:12;;;;;;;13.40;12.40;;;;;;;;;;4980213;28;20335;-57
2021/06/22 14:14:37;;;;;;;14.47;13.47;;;;;;;;;;4979525;28;20181;-57
2021/06/22 14:17:02;;;;;;;12.80;11.80;;;;;;;;;;4983460;28;20181;-57
2021/06/22 14:19:28;;;;;;;15.63;14.43;;;;;;;;;;4982142;28;20196;-57
2021/06/22 14:21:53;;;;;;;15.40;14.30;;;;;;;;;;4984183;28;20561;-56
2021/06/22 14:24:18;;;;;;;15.30;14.20;;;;;;;;;;4981847;28;20174;-56